Time;durP1;ratioP1;P1;durP2;ratioP2;P2;SDS_P1;SDS_P2;PMS_P1;PMS_P2;Temp;Humidity;BMP_temperature;BMP_pressure;BME280_temperature;BME280_humidity;BME280_pressure;Samples;Min_cycle;Max_cycle;Signal;HPM_P1;HPM_P2
2023/11/13 00:02:09;;;;;;;7.85;3.45;;;6.50;99.90;;;;;;5009729;28;20337;-62
2023/11/13 00:04:35;;;;;;;15.68;4.45;;;6.50;99.90;;;;;;5009342;28;20467;-62
2023/11/13 00:07:00;;;;;;;6.70;4.30;;;6.50;99.90;;;;;;5009488;28;20041;-62
2023/11/13 00:09:26;;;;;;;11.30;3.95;;;6.40;99.90;;;;;;5009683;28;20471;-63
2023/11/13 00:11:53;;;;;;;5.80;3.83;;;6.40;99.90;;;;;;5009613;28;20117;-63
2023/11/13 00:14:18;;;;;;;6.40;4.05;;;6.40;99.90;;;;;;5009219;28;20050;-63
2023/11/13 00:16:44;;;;;;;7.35;3.97;;;6.40;99.90;;;;;;5009164;28;20065;-62
2023/11/13 00:19:09;;;;;;;7.43;3.38;;;6.40;99.90;;;;;;5009187;28;20443;-63
2023/11/13 00:21:35;;;;;;;8.10;4.10;;;6.40;99.90;;;;;;5008914;28;20046;-63
2023/11/13 00:24:01;;;;;;;8.20;3.67;;;6.40;99.90;;;;;;5004456;28;20077;-62
2023/11/13 00:26:27;;;;;;;7.47;3.95;;;6.30;99.90;;;;;;5005889;28;20364;-62
2023/11/13 00:28:52;;;;;;;7.90;4.05;;;6.30;99.90;;;;;;5009001;28;20126;-62
2023/11/13 00:31:19;;;;;;;7.65;3.50;;;6.30;99.90;;;;;;5008736;28;20033;-62
2023/11/13 00:33:46;;;;;;;6.35;4.10;;;6.20;99.90;;;;;;5008206;28;20069;-62
2023/11/13 00:36:12;;;;;;;5.90;3.97;;;6.20;99.90;;;;;;5003958;28;20408;-62
2023/11/13 00:38:37;;;;;;;7.53;4.63;;;6.20;99.90;;;;;;5007478;28;20523;-62
2023/11/13 00:41:03;;;;;;;6.85;3.83;;;6.10;99.90;;;;;;5008935;28;20399;-61
2023/11/13 00:43:29;;;;;;;5.72;3.63;;;6.10;99.90;;;;;;5008700;28;20026;-61
2023/11/13 00:45:54;;;;;;;5.32;4.13;;;6.00;99.90;;;;;;5008466;28;20077;-62
2023/11/13 00:48:20;;;;;;;6.72;3.70;;;6.00;99.90;;;;;;5008763;28;20030;-61
2023/11/13 00:50:45;;;;;;;5.18;3.70;;;5.90;99.90;;;;;;5008534;28;20622;-61
2023/11/13 00:53:11;;;;;;;9.30;3.80;;;5.90;99.90;;;;;;5008822;28;20439;-61
2023/11/13 00:55:37;;;;;;;6.55;3.58;;;5.90;99.90;;;;;;5008137;28;20345;-62
2023/11/13 00:58:04;;;;;;;6.47;3.65;;;5.90;99.90;;;;;;5008704;28;20105;-61
2023/11/13 01:00:30;;;;;;;9.48;3.97;;;5.80;99.90;;;;;;5008578;28;20117;-62
2023/11/13 01:02:55;;;;;;;7.43;4.13;;;5.80;99.90;;;;;;5008750;28;20057;-61
2023/11/13 01:05:21;;;;;;;7.78;3.78;;;5.80;99.90;;;;;;5008041;28;20068;-61
2023/11/13 01:07:46;;;;;;;7.78;3.70;;;5.70;99.90;;;;;;5008507;28;20105;-61
2023/11/13 01:10:13;;;;;;;6.75;4.85;;;5.70;99.90;;;;;;5003992;28;20092;-62
2023/11/13 01:12:39;;;;;;;7.13;3.85;;;5.70;99.90;;;;;;5007339;28;20049;-61
2023/11/13 01:15:07;;;;;;;5.80;4.03;;;5.60;99.90;;;;;;5008179;28;20052;-62
2023/11/13 01:17:33;;;;;;;5.75;3.20;;;5.60;99.90;;;;;;5008133;28;20364;-61
2023/11/13 01:19:58;;;;;;;8.50;3.63;;;5.60;99.90;;;;;;5003575;28;20030;-61
2023/11/13 01:22:24;;;;;;;7.38;3.88;;;5.60;99.90;;;;;;5000351;28;20061;-61
2023/11/13 01:24:50;;;;;;;5.88;3.90;;;5.50;99.90;;;;;;5008088;28;20022;-61
2023/11/13 01:27:15;;;;;;;5.78;3.70;;;5.50;99.90;;;;;;5003478;28;20467;-61
2023/11/13 01:29:41;;;;;;;9.02;4.63;;;5.50;99.90;;;;;;5007641;28;20025;-61
2023/11/13 01:32:07;;;;;;;6.82;3.85;;;5.50;99.90;;;;;;5008509;28;20034;-61
2023/11/13 01:34:32;;;;;;;8.02;4.22;;;5.50;99.90;;;;;;5007855;28;20029;-62
2023/11/13 01:36:58;;;;;;;8.30;3.90;;;5.40;99.90;;;;;;5007917;28;20097;-61
2023/11/13 01:39:24;;;;;;;7.30;3.70;;;5.40;99.90;;;;;;5008125;28;20033;-61
2023/11/13 01:41:49;;;;;;;6.00;3.75;;;5.40;99.90;;;;;;5008090;28;20048;-62
2023/11/13 01:44:15;;;;;;;7.75;3.58;;;5.40;99.90;;;;;;5008132;28;20509;-62
2023/11/13 01:46:42;;;;;;;6.38;4.18;;;5.30;99.90;;;;;;5011774;28;20137;-62
2023/11/13 01:49:09;;;;;;;10.35;3.88;;;5.30;99.90;;;;;;5012559;28;20431;-62
2023/11/13 01:51:35;;;;;;;5.10;3.47;;;5.30;99.90;;;;;;5008813;28;20480;-61
2023/11/13 01:54:01;;;;;;;8.95;4.22;;;5.30;99.90;;;;;;5012137;28;20032;-61
2023/11/13 01:56:29;;;;;;;8.07;4.07;;;5.20;99.90;;;;;;5011980;28;20447;-62
2023/11/13 01:58:56;;;;;;;6.45;3.40;;;5.20;99.90;;;;;;5012401;28;20100;-61
2023/11/13 02:01:23;;;;;;;7.93;4.18;;;5.20;99.90;;;;;;5012294;28;20037;-61
2023/11/13 02:03:54;;;;;;;11.13;4.32;;;5.20;99.90;;;;;;5012121;28;20049;-61
2023/11/13 02:06:20;;;;;;;7.90;4.10;;;5.10;99.90;;;;;;5011532;28;20080;-61
2023/11/13 02:08:46;;;;;;;5.43;4.18;;;5.10;99.90;;;;;;5010467;28;20104;-61
2023/11/13 02:11:12;;;;;;;11.70;4.55;;;5.10;99.90;;;;;;5011879;28;20112;-61
2023/11/13 02:13:40;;;;;;;8.18;4.78;;;5.00;99.90;;;;;;5011698;28;20111;-61
2023/11/13 02:16:06;;;;;;;10.80;4.00;;;5.00;99.90;;;;;;5011200;28;20028;-61
2023/11/13 02:18:36;;;;;;;7.20;4.32;;;4.90;99.90;;;;;;5011520;28;20535;-61
2023/11/13 02:21:01;;;;;;;5.63;3.67;;;5.00;99.90;;;;;;5011524;28;20515;-61
2023/11/13 02:23:27;;;;;;;7.45;4.28;;;4.90;99.90;;;;;;5012073;28;20104;-61
2023/11/13 02:25:57;;;;;;;7.40;3.80;;;4.90;99.90;;;;;;5010194;28;20482;-61
2023/11/13 02:28:23;;;;;;;15.05;4.57;;;4.80;99.90;;;;;;5011426;28;20034;-62
2023/11/13 02:30:49;;;;;;;6.43;3.83;;;4.80;99.90;;;;;;5011137;28;20029;-63
2023/11/13 02:33:15;;;;;;;8.02;3.75;;;4.80;99.90;;;;;;5006975;28;20022;-62
2023/11/13 02:35:41;;;;;;;6.93;3.65;;;4.80;99.90;;;;;;5009872;28;20083;-61
2023/11/13 02:38:07;;;;;;;6.10;3.50;;;4.80;99.90;;;;;;5011348;28;20026;-62
2023/11/13 02:40:33;;;;;;;5.45;3.47;;;4.90;99.90;;;;;;5011155;28;20062;-61
2023/11/13 02:42:58;;;;;;;9.98;3.60;;;4.80;99.90;;;;;;5011604;28;20173;-61
2023/11/13 02:45:24;;;;;;;5.60;3.38;;;4.80;99.90;;;;;;5010490;28;20033;-61
2023/11/13 02:47:52;;;;;;;5.78;3.55;;;4.90;99.90;;;;;;5011116;28;20037;-61
2023/11/13 02:50:19;;;;;;;6.25;4.03;;;4.80;99.90;;;;;;5011503;28;20025;-61
2023/11/13 02:52:45;;;;;;;7.15;3.17;;;4.90;99.90;;;;;;5011006;28;20402;-61
2023/11/13 02:55:10;;;;;;;4.38;2.75;;;4.90;99.90;;;;;;5010649;28;20135;-62
2023/11/13 02:57:36;;;;;;;6.32;3.55;;;4.90;99.90;;;;;;5010160;28;20022;-62
2023/11/13 03:00:06;;;;;;;5.47;2.88;;;4.80;99.90;;;;;;5011035;28;20029;-62
2023/11/13 03:02:33;;;;;;;11.20;3.10;;;4.80;99.90;;;;;;5010943;28;20102;-61
2023/11/13 03:04:59;;;;;;;3.97;2.88;;;4.80;99.90;;;;;;5005829;28;20022;-61
2023/11/13 03:07:25;;;;;;;4.97;2.95;;;4.80;99.90;;;;;;5007529;28;20052;-62
2023/11/13 03:09:53;;;;;;;4.85;3.10;;;4.70;99.90;;;;;;5010705;28;20018;-63
2023/11/13 03:12:19;;;;;;;9.43;3.90;;;4.70;99.90;;;;;;5010867;28;20022;-62
2023/11/13 03:14:45;;;;;;;5.75;2.80;;;4.70;99.90;;;;;;5011085;28;20173;-62
2023/11/13 03:17:10;;;;;;;8.02;3.30;;;4.70;99.90;;;;;;5010711;28;20105;-62
2023/11/13 03:19:36;;;;;;;7.15;3.50;;;4.60;99.90;;;;;;5010809;28;20109;-62
2023/11/13 03:22:02;;;;;;;4.95;2.50;;;4.60;99.90;;;;;;5010565;28;20483;-63
2023/11/13 03:24:28;;;;;;;8.13;2.55;;;4.60;99.90;;;;;;5006337;28;20026;-62
2023/11/13 03:26:54;;;;;;;5.15;3.15;;;4.60;99.90;;;;;;5009752;28;20014;-62
2023/11/13 03:29:19;;;;;;;4.25;2.30;;;4.60;99.90;;;;;;5009183;28;20075;-62
2023/11/13 03:31:45;;;;;;;4.35;2.85;;;4.60;99.90;;;;;;5010610;28;20052;-62
2023/11/13 03:34:11;;;;;;;3.72;2.47;;;4.60;99.90;;;;;;5005788;28;20022;-61
2023/11/13 03:36:36;;;;;;;5.90;3.40;;;4.60;99.90;;;;;;5008478;28;20143;-62
2023/11/13 03:39:02;;;;;;;5.15;2.80;;;4.60;99.90;;;;;;5010651;28;20033;-61
2023/11/13 03:41:28;;;;;;;6.93;2.95;;;4.50;99.90;;;;;;5010178;28;20246;-61
2023/11/13 03:43:53;;;;;;;4.60;2.97;;;4.50;99.90;;;;;;5010217;28;20038;-61
2023/11/13 03:46:19;;;;;;;3.70;2.55;;;4.50;99.90;;;;;;5009842;28;20018;-61
2023/11/13 03:48:45;;;;;;;5.30;2.40;;;4.50;99.90;;;;;;5010107;28;20032;-61
2023/11/13 03:51:10;;;;;;;4.10;2.55;;;4.40;99.90;;;;;;5009981;28;20185;-62
2023/11/13 03:53:36;;;;;;;3.75;2.17;;;4.40;99.90;;;;;;5009899;28;20036;-62
2023/11/13 03:56:02;;;;;;;6.63;2.55;;;4.40;99.90;;;;;;5009362;28;20029;-62
2023/11/13 03:58:27;;;;;;;3.45;2.33;;;4.40;99.90;;;;;;5009806;28;20030;-62
2023/11/13 04:00:53;;;;;;;5.43;2.53;;;4.40;99.90;;;;;;5009883;28;20436;-63
2023/11/13 04:03:19;;;;;;;5.03;2.80;;;4.40;99.90;;;;;;5010128;28;20439;-62
2023/11/13 04:05:44;;;;;;;4.68;2.17;;;4.40;99.90;;;;;;5009375;28;20030;-62
2023/11/13 04:08:10;;;;;;;5.65;2.50;;;4.50;99.90;;;;;;5008928;28;20113;-62
2023/11/13 04:10:35;;;;;;;4.90;2.47;;;4.50;99.90;;;;;;5009434;28;20096;-62
2023/11/13 04:13:01;;;;;;;4.90;2.55;;;4.50;99.90;;;;;;5009731;28;20506;-62
2023/11/13 04:15:27;;;;;;;3.58;2.53;;;4.50;99.90;;;;;;5009131;28;20018;-62
2023/11/13 04:17:52;;;;;;;7.20;2.30;;;4.60;99.90;;;;;;5009578;28;20032;-62
2023/11/13 04:20:21;;;;;;;10.82;2.40;;;4.60;99.90;;;;;;5009890;28;20545;-62
2023/11/13 04:22:48;;;;;;;4.32;2.30;;;4.60;99.90;;;;;;5009540;28;20042;-62
2023/11/13 04:25:14;;;;;;;3.60;2.22;;;4.60;99.90;;;;;;5004446;28;20575;-63
2023/11/13 04:27:41;;;;;;;5.25;2.80;;;4.60;99.90;;;;;;5008245;28;20112;-62
2023/11/13 04:30:07;;;;;;;3.10;2.08;;;4.70;99.90;;;;;;5004649;28;20022;-63
2023/11/13 04:32:32;;;;;;;6.72;2.05;;;4.70;99.90;;;;;;5007190;28;20065;-62
2023/11/13 04:34:58;;;;;;;6.22;2.65;;;4.70;99.90;;;;;;5009144;28;20058;-62
2023/11/13 04:37:24;;;;;;;7.80;2.65;;;4.80;99.90;;;;;;5009040;28;20033;-62
2023/11/13 04:39:49;;;;;;;5.07;2.53;;;4.80;99.90;;;;;;5009105;28;20100;-60
2023/11/13 04:42:15;;;;;;;5.40;2.42;;;4.80;99.90;;;;;;5009111;28;20022;-63
2023/11/13 04:44:40;;;;;;;3.72;2.45;;;4.80;99.90;;;;;;5008941;28;20026;-63
2023/11/13 04:47:07;;;;;;;6.32;2.25;;;4.80;99.90;;;;;;5009072;28;20028;-60
2023/11/13 04:49:35;;;;;;;5.95;2.33;;;4.80;99.90;;;;;;5009080;28;20483;-60
2023/11/13 04:52:01;;;;;;;3.17;2.38;;;4.90;99.90;;;;;;5004951;28;20068;-61
2023/11/13 04:54:26;;;;;;;3.47;2.15;;;4.90;99.90;;;;;;4998829;28;20077;-60
2023/11/13 04:56:52;;;;;;;5.55;2.58;;;4.80;99.90;;;;;;4997454;28;20025;-60
2023/11/13 04:59:18;;;;;;;4.05;2.00;;;4.80;99.90;;;;;;4997070;28;20018;-61
2023/11/13 05:01:43;;;;;;;3.53;2.10;;;4.80;99.90;;;;;;4998439;28;20227;-60
2023/11/13 05:04:09;;;;;;;4.35;2.03;;;4.80;99.90;;;;;;4998149;28;20022;-61
2023/11/13 05:06:35;;;;;;;4.07;2.05;;;4.80;99.90;;;;;;4996171;28;20027;-60
2023/11/13 05:09:05;;;;;;;4.50;2.80;;;4.80;99.90;;;;;;5004484;28;20568;-60
2023/11/13 05:11:31;;;;;;;10.02;2.90;;;4.80;99.90;;;;;;5006793;28;20029;-60
2023/11/13 05:13:57;;;;;;;4.00;2.35;;;4.70;99.90;;;;;;5008892;28;20080;-60
2023/11/13 05:16:24;;;;;;;5.32;2.20;;;4.70;99.90;;;;;;5008307;28;20143;-60
2023/11/13 05:18:54;;;;;;;4.25;2.30;;;4.70;99.90;;;;;;5006251;28;20235;-60
2023/11/13 05:21:21;;;;;;;4.22;2.00;;;4.70;99.90;;;;;;5008029;28;20030;-60
2023/11/13 05:23:47;;;;;;;2.90;2.22;;;4.80;99.90;;;;;;5008629;28;20022;-61
2023/11/13 05:26:13;;;;;;;3.20;2.30;;;4.70;99.90;;;;;;5003585;28;20057;-60
2023/11/13 05:28:39;;;;;;;4.80;2.47;;;4.70;99.90;;;;;;5007090;28;20022;-61
2023/11/13 05:31:04;;;;;;;5.60;2.60;;;4.60;99.90;;;;;;5008182;28;20044;-60
2023/11/13 05:33:30;;;;;;;8.10;2.83;;;4.60;99.90;;;;;;5000180;28;20044;-60
2023/11/13 05:35:56;;;;;;;3.65;2.88;;;4.50;99.90;;;;;;4995946;28;20285;-60
2023/11/13 05:38:22;;;;;;;4.53;2.28;;;4.50;99.90;;;;;;4997620;28;20053;-59
2023/11/13 05:40:48;;;;;;;7.90;2.60;;;4.50;99.90;;;;;;4996184;28;20495;-59
2023/11/13 05:43:14;;;;;;;3.67;2.80;;;4.40;99.90;;;;;;4998105;28;20026;-59
2023/11/13 05:45:40;;;;;;;4.65;2.70;;;4.40;99.90;;;;;;5000597;28;20088;-60
2023/11/13 05:48:06;;;;;;;5.22;2.58;;;4.30;99.90;;;;;;5008227;28;20057;-60
2023/11/13 05:50:32;;;;;;;7.13;2.78;;;4.30;99.90;;;;;;5004913;28;20035;-63
2023/11/13 05:52:58;;;;;;;5.05;3.30;;;4.20;99.90;;;;;;5009119;28;20549;-63
2023/11/13 05:55:24;;;;;;;4.20;2.72;;;4.20;99.90;;;;;;5008045;28;20030;-61
2023/11/13 05:57:50;;;;;;;4.20;2.85;;;4.20;99.90;;;;;;5008613;28;20080;-62
2023/11/13 06:00:18;;;;;;;8.75;3.75;;;4.10;99.90;;;;;;5007916;28;20608;-62
2023/11/13 06:02:47;;;;;;;5.63;2.90;;;4.10;99.90;;;;;;5008081;28;20037;-62
2023/11/13 06:05:14;;;;;;;3.75;2.97;;;4.10;99.90;;;;;;5007393;28;20041;-62
2023/11/13 06:07:40;;;;;;;4.00;2.88;;;4.10;99.90;;;;;;4997202;28;20217;-61
2023/11/13 06:10:07;;;;;;;6.15;3.50;;;4.10;99.90;;;;;;4996843;28;20533;-61
2023/11/13 06:12:34;;;;;;;4.10;3.20;;;4.10;99.90;;;;;;4993996;28;20065;-61
2023/11/13 06:15:00;;;;;;;4.53;3.15;;;4.10;99.90;;;;;;4994726;28;20030;-62
2023/11/13 06:17:26;;;;;;;3.85;3.00;;;4.00;99.90;;;;;;4995962;28;20165;-62
2023/11/13 06:19:53;;;;;;;7.22;3.17;;;4.00;99.90;;;;;;4994765;28;20109;-62
2023/11/13 06:22:20;;;;;;;3.70;3.03;;;4.10;99.90;;;;;;5007857;28;20497;-62
2023/11/13 06:24:46;;;;;;;3.88;2.90;;;4.00;99.90;;;;;;5007761;28;20033;-63
2023/11/13 06:27:11;;;;;;;6.47;3.30;;;3.90;99.90;;;;;;5007431;28;20503;-63
2023/11/13 06:29:37;;;;;;;5.18;2.80;;;3.90;99.90;;;;;;5005043;28;20137;-62
2023/11/13 06:32:03;;;;;;;7.35;3.60;;;3.90;99.90;;;;;;5008908;28;20030;-62
2023/11/13 06:34:29;;;;;;;4.72;3.10;;;3.90;99.90;;;;;;5011329;28;20065;-63
2023/11/13 06:36:54;;;;;;;6.50;3.60;;;3.90;99.90;;;;;;5011185;28;20022;-63
2023/11/13 06:39:20;;;;;;;6.25;3.75;;;3.90;99.90;;;;;;5011261;28;20034;-63
2023/11/13 06:41:48;;;;;;;11.90;3.58;;;3.80;99.90;;;;;;5011169;28;20042;-63
2023/11/13 06:44:14;;;;;;;7.38;3.40;;;3.80;99.90;;;;;;5006575;28;20105;-63
2023/11/13 06:46:40;;;;;;;6.75;3.85;;;3.80;99.90;;;;;;5009448;28;20495;-64
2023/11/13 06:49:06;;;;;;;4.38;3.38;;;3.90;99.90;;;;;;5011325;28;20029;-63
2023/11/13 06:51:32;;;;;;;6.07;3.35;;;3.90;99.90;;;;;;5011328;28;20204;-64
2023/11/13 06:53:57;;;;;;;6.68;3.70;;;3.90;99.90;;;;;;5011093;28;20116;-63
2023/11/13 06:56:24;;;;;;;5.15;2.72;;;3.90;99.90;;;;;;5010921;28;20113;-64
2023/11/13 06:58:49;;;;;;;7.57;3.30;;;3.90;99.90;;;;;;5002796;28;20297;-64
2023/11/13 07:01:15;;;;;;;4.97;3.08;;;3.90;99.90;;;;;;5004554;28;20017;-64
2023/11/13 07:03:41;;;;;;;11.60;3.75;;;3.90;99.90;;;;;;4998878;28;20026;-64
2023/11/13 07:06:07;;;;;;;5.25;3.05;;;3.90;99.90;;;;;;5000493;28;20018;-65
2023/11/13 07:08:33;;;;;;;6.13;3.15;;;3.90;99.90;;;;;;5009409;28;20049;-64
2023/11/13 07:10:59;;;;;;;6.68;3.47;;;3.80;99.90;;;;;;5006425;28;20065;-65
2023/11/13 07:13:24;;;;;;;6.30;3.20;;;3.90;99.90;;;;;;5004444;28;20032;-64
2023/11/13 07:15:51;;;;;;;5.32;3.30;;;3.90;99.90;;;;;;5005216;28;20496;-65
2023/11/13 07:18:16;;;;;;;4.88;2.97;;;3.90;99.90;;;;;;4998161;28;20045;-65
2023/11/13 07:20:42;;;;;;;5.57;3.17;;;4.00;99.90;;;;;;4999874;28;20043;-65
2023/11/13 07:23:09;;;;;;;6.65;2.70;;;4.00;99.90;;;;;;5010882;28;20425;-64
2023/11/13 07:25:35;;;;;;;7.18;2.60;;;4.00;99.90;;;;;;5010485;28;20060;-64
2023/11/13 07:28:00;;;;;;;5.57;3.25;;;4.10;99.90;;;;;;5010724;28;20060;-64
2023/11/13 07:30:27;;;;;;;5.65;2.90;;;4.10;99.90;;;;;;5009476;28;20107;-64
2023/11/13 07:32:53;;;;;;;7.82;3.55;;;4.10;99.90;;;;;;5010299;28;20480;-64
2023/11/13 07:35:19;;;;;;;6.13;3.58;;;4.10;99.90;;;;;;5005369;28;20337;-65
2023/11/13 07:37:45;;;;;;;6.03;3.30;;;4.20;99.90;;;;;;5000316;28;20045;-65
2023/11/13 07:40:13;;;;;;;6.55;3.75;;;4.20;99.90;;;;;;5000674;28;20026;-65
2023/11/13 07:42:40;;;;;;;8.10;3.80;;;4.30;99.90;;;;;;5002848;28;20102;-64
2023/11/13 07:45:07;;;;;;;6.05;3.72;;;4.40;99.90;;;;;;5003174;28;20148;-65
2023/11/13 07:47:33;;;;;;;5.00;3.58;;;4.40;99.90;;;;;;5016457;28;20064;-65
2023/11/13 07:49:59;;;;;;;5.82;3.53;;;4.50;99.90;;;;;;5001466;28;20575;-65
2023/11/13 07:52:27;;;;;;;8.13;3.83;;;4.60;99.90;;;;;;4998894;28;20036;-65
2023/11/13 07:54:54;;;;;;;11.90;4.88;;;4.60;99.90;;;;;;4999769;28;20257;-64
2023/11/13 07:57:20;;;;;;;7.47;4.47;;;4.60;99.90;;;;;;5004043;28;20036;-64
2023/11/13 07:59:46;;;;;;;8.30;4.70;;;4.70;99.90;;;;;;5008469;28;20018;-64
2023/11/13 08:02:13;;;;;;;5.47;4.47;;;4.70;99.90;;;;;;5008632;28;20353;-64
2023/11/13 08:04:40;;;;;;;7.28;4.38;;;4.70;99.90;;;;;;5008638;28;20480;-64
2023/11/13 08:07:06;;;;;;;7.60;5.18;;;4.70;99.90;;;;;;5008058;28;20021;-64
2023/11/13 08:09:33;;;;;;;12.18;5.90;;;4.80;99.90;;;;;;5008081;28;20381;-64
2023/11/13 08:12:01;;;;;;;9.10;5.03;;;4.80;99.90;;;;;;5008116;28;20025;-64
2023/11/13 08:14:27;;;;;;;9.40;4.57;;;4.80;99.90;;;;;;5009946;28;20052;-63
2023/11/13 08:16:53;;;;;;;9.52;5.55;;;4.90;99.90;;;;;;5009374;28;20539;-63
2023/11/13 08:19:20;;;;;;;7.75;5.47;;;5.00;99.90;;;;;;5009580;28;20156;-63
2023/11/13 08:21:46;;;;;;;8.40;4.80;;;5.10;99.90;;;;;;5009512;28;20036;-63
2023/11/13 08:24:12;;;;;;;8.80;4.80;;;5.20;99.90;;;;;;5009512;28;20087;-63
2023/11/13 08:26:37;;;;;;;6.20;4.05;;;5.20;99.90;;;;;;5008979;28;20029;-64
2023/11/13 08:29:03;;;;;;;6.32;3.63;;;5.20;99.90;;;;;;5009367;28;20113;-64
2023/11/13 08:31:29;;;;;;;6.75;3.50;;;5.30;99.90;;;;;;5009536;28;20064;-64
2023/11/13 08:33:55;;;;;;;6.07;3.63;;;5.30;99.90;;;;;;5009636;28;20030;-63
2023/11/13 08:36:26;;;;;;;4.80;2.63;;;5.30;99.90;;;;;;5009045;28;20071;-64
2023/11/13 08:38:53;;;;;;;4.65;3.20;;;5.40;99.90;;;;;;5004897;28;20503;-64
2023/11/13 08:41:18;;;;;;;4.80;3.22;;;5.40;99.90;;;;;;5005054;28;20720;-63
2023/11/13 08:43:45;;;;;;;10.07;3.10;;;5.60;99.90;;;;;;5008871;28;20081;-63
2023/11/13 08:46:11;;;;;;;4.82;2.63;;;5.70;99.90;;;;;;5008851;28;20029;-64
2023/11/13 08:48:37;;;;;;;4.90;2.97;;;5.70;99.90;;;;;;5009202;28;20543;-63
2023/11/13 08:51:05;;;;;;;12.02;3.47;;;5.80;99.90;;;;;;5009035;28;20108;-64
2023/11/13 08:53:42;;;;;;;4.45;2.92;;;5.90;99.90;;;;;;5005463;28;20026;-63
2023/11/13 08:56:14;;;;;;;4.10;2.70;;;6.10;99.90;;;;;;5008311;28;20061;-64
2023/11/13 08:58:43;;;;;;;8.50;3.00;;;6.20;99.90;;;;;;5008972;28;20133;-64
2023/11/13 09:01:09;;;;;;;6.10;3.13;;;6.40;99.90;;;;;;5009113;28;20033;-63
2023/11/13 09:03:35;;;;;;;4.35;3.15;;;6.40;99.90;;;;;;5008793;28;20020;-64
2023/11/13 09:06:07;;;;;;;7.10;3.13;;;6.50;99.90;;;;;;5008587;28;20487;-63
2023/11/13 09:08:35;;;;;;;7.13;3.00;;;6.60;99.90;;;;;;5008665;28;20017;-64
2023/11/13 09:11:01;;;;;;;6.65;3.50;;;6.70;99.90;;;;;;5009161;28;20018;-64
2023/11/13 09:13:27;;;;;;;4.55;2.95;;;6.80;99.90;;;;;;5004337;28;20519;-63
2023/11/13 09:15:52;;;;;;;11.30;4.57;;;7.00;99.90;;;;;;5008527;28;20117;-64
2023/11/13 09:18:22;;;;;;;6.22;4.03;;;7.00;99.90;;;;;;5004070;28;20176;-63
2023/11/13 09:20:48;;;;;;;8.45;3.92;;;7.00;99.90;;;;;;5008578;28;20041;-63
2023/11/13 09:23:15;;;;;;;11.32;5.32;;;7.10;99.90;;;;;;5008645;28;20021;-63
2023/11/13 09:25:42;;;;;;;8.70;4.18;;;7.30;99.90;;;;;;5007503;28;20117;-63
2023/11/13 09:28:08;;;;;;;6.45;4.35;;;7.30;99.90;;;;;;5008143;28;20025;-63
2023/11/13 09:30:34;;;;;;;8.85;4.18;;;7.30;99.90;;;;;;5004731;28;20027;-63
2023/11/13 09:33:01;;;;;;;10.95;5.05;;;7.40;99.90;;;;;;5003705;28;20045;-63
2023/11/13 09:35:29;;;;;;;6.28;4.35;;;7.50;99.90;;;;;;5004835;28;20050;-61
2023/11/13 09:37:56;;;;;;;10.32;4.97;;;7.80;99.90;;;;;;5007349;28;20018;-62
2023/11/13 09:40:35;;;;;;;15.48;5.00;;;7.90;99.90;;;;;;5008514;28;20030;-61
2023/11/13 09:43:34;;;;;;;7.28;4.80;;;8.20;99.90;;;;;;5001722;28;20026;-62
2023/11/13 09:46:06;;;;;;;8.48;4.63;;;8.40;99.90;;;;;;4994037;28;20038;-61
2023/11/13 09:48:35;;;;;;;6.05;4.20;;;8.50;99.90;;;;;;5008201;28;20056;-63
2023/11/13 09:51:01;;;;;;;7.72;4.60;;;8.70;99.90;;;;;;5008283;28;20033;-62
2023/11/13 09:53:28;;;;;;;7.13;4.68;;;8.80;99.90;;;;;;5007894;28;20030;-63
2023/11/13 09:55:54;;;;;;;12.25;5.30;;;8.90;99.90;;;;;;5008054;28;20034;-63
2023/11/13 09:58:20;;;;;;;14.05;5.50;;;9.10;99.90;;;;;;5008849;28;20390;-63
2023/11/13 10:00:46;;;;;;;10.35;5.50;;;9.50;99.90;;;;;;5008432;28;20123;-64
2023/11/13 10:03:15;;;;;;;9.25;5.82;;;9.50;99.90;;;;;;5008538;28;20022;-64
2023/11/13 10:05:43;;;;;;;10.43;6.15;;;9.80;99.90;;;;;;5008307;28;20332;-64
2023/11/13 10:08:08;;;;;;;6.90;5.07;;;9.80;99.90;;;;;;5011616;28;20033;-63
2023/11/13 10:10:39;;;;;;;7.38;5.40;;;10.00;99.90;;;;;;5012215;28;20031;-64
2023/11/13 10:13:09;;;;;;;10.38;5.75;;;10.10;99.90;;;;;;5011531;28;20056;-63
2023/11/13 10:15:36;;;;;;;8.65;5.40;;;10.10;99.90;;;;;;5011089;28;20107;-62
2023/11/13 10:18:14;;;;;;;10.43;6.00;;;10.00;99.90;;;;;;5011877;28;20029;-62
2023/11/13 10:20:45;;;;;;;8.10;5.75;;;9.80;99.90;;;;;;5007628;28;20139;-62
2023/11/13 10:23:13;;;;;;;10.00;6.25;;;9.70;99.90;;;;;;5009163;28;20018;-62
2023/11/13 10:25:58;;;;;;;9.48;5.82;;;9.50;99.90;;;;;;4993207;28;20121;-61
2023/11/13 10:28:45;;;;;;;11.38;6.10;;;9.60;99.90;;;;;;5007152;28;20571;-62
2023/11/13 10:31:16;;;;;;;9.57;5.45;;;9.50;99.90;;;;;;5011717;28;20046;-62
2023/11/13 10:33:55;;;;;;;7.97;5.80;;;9.60;99.90;;;;;;5011179;28;20022;-63
2023/11/13 10:36:22;;;;;;;20.08;6.47;;;9.90;99.90;;;;;;5010989;28;20030;-63
2023/11/13 10:38:49;;;;;;;10.63;5.97;;;10.00;99.90;;;;;;5005689;28;20026;-63
2023/11/13 10:41:24;;;;;;;9.45;6.57;;;9.90;99.90;;;;;;4998013;28;20033;-63
2023/11/13 10:43:50;;;;;;;10.05;6.60;;;9.90;99.90;;;;;;5000608;28;20026;-63
2023/11/13 10:46:29;;;;;;;9.90;6.15;;;9.90;99.90;;;;;;5004894;28;20050;-63
2023/11/13 10:48:57;;;;;;;8.50;5.88;;;9.80;99.90;;;;;;4997463;28;20018;-64
2023/11/13 10:51:25;;;;;;;9.80;6.80;;;9.90;99.90;;;;;;4999174;28;20041;-65
2023/11/13 10:53:52;;;;;;;10.00;6.53;;;9.80;99.90;;;;;;5003362;28;20550;-64
2023/11/13 10:56:19;;;;;;;7.88;5.72;;;9.90;99.90;;;;;;5011233;28;20140;-63
2023/11/13 10:58:44;;;;;;;11.52;6.72;;;9.70;99.90;;;;;;5011221;28;20441;-63
2023/11/13 11:01:13;;;;;;;10.38;6.70;;;9.60;99.90;;;;;;5011397;28;20060;-63
2023/11/13 11:03:45;;;;;;;13.40;6.00;;;9.40;99.90;;;;;;5011395;28;20025;-63
2023/11/13 11:06:16;;;;;;;10.88;6.30;;;9.40;99.90;;;;;;5010696;28;20022;-63
2023/11/13 11:08:44;;;;;;;17.55;7.18;;;9.10;99.90;;;;;;5011586;28;20022;-64
2023/11/13 11:11:12;;;;;;;10.75;6.15;;;8.90;99.90;;;;;;5011584;28;20028;-63
2023/11/13 11:13:43;;;;;;;10.65;6.25;;;8.70;99.90;;;;;;5010796;28;20551;-63
2023/11/13 11:16:27;;;;;;;;;;;8.70;99.90;;;;;;5011439;28;20044;-64
2023/11/13 11:19:29;;;;;;;11.85;5.72;;;8.70;99.90;;;;;;5010666;28;20103;-63
2023/11/13 11:22:13;;;;;;;8.57;6.22;;;8.70;99.90;;;;;;5005774;28;20514;-64
2023/11/13 11:25:04;;;;;;;11.98;6.10;;;8.60;99.90;;;;;;5010714;28;20395;-63
2023/11/13 11:27:41;;;;;;;10.52;6.03;;;8.60;99.90;;;;;;5010835;28;20110;-65
2023/11/13 11:30:20;;;;;;;11.57;6.72;;;8.50;99.90;;;;;;5005957;28;20054;-63
2023/11/13 11:32:54;;;;;;;9.13;6.38;;;8.50;99.90;;;;;;5009958;28;20117;-65
2023/11/13 11:35:27;;;;;;;14.63;6.72;;;8.50;99.90;;;;;;5004010;28;20029;-63
2023/11/13 11:38:27;;;;;;;15.88;7.18;;;8.40;99.90;;;;;;5002817;28;20117;-63
2023/11/13 11:40:53;;;;;;;10.02;6.63;;;8.40;99.90;;;;;;4997642;28;20030;-64
2023/11/13 11:43:23;;;;;;;11.65;6.85;;;8.30;99.90;;;;;;4991177;28;20488;-63
2023/11/13 11:45:51;;;;;;;9.70;6.20;;;8.30;99.90;;;;;;4990637;28;20030;-62
2023/11/13 11:48:18;;;;;;;12.35;7.72;;;8.30;99.90;;;;;;4991096;28;20112;-61
2023/11/13 11:50:45;;;;;;;11.13;6.28;;;8.30;99.90;;;;;;4991167;28;20074;-61
2023/11/13 11:53:19;;;;;;;12.30;7.18;;;8.40;99.90;;;;;;4991652;28;20031;-62
2023/11/13 11:55:45;;;;;;;13.93;6.82;;;8.30;99.90;;;;;;4990578;28;20062;-62
2023/11/13 11:58:15;;;;;;;14.02;7.65;;;8.30;99.90;;;;;;4990869;28;20407;-62
2023/11/13 12:00:41;;;;;;;12.05;6.72;;;8.30;99.90;;;;;;4990359;28;20042;-62
2023/11/13 12:03:08;;;;;;;10.55;6.97;;;8.30;99.90;;;;;;4999728;28;20030;-62
2023/11/13 12:05:34;;;;;;;10.80;6.45;;;8.30;99.90;;;;;;5003823;28;20488;-61
2023/11/13 12:07:59;;;;;;;11.77;8.20;;;8.30;99.90;;;;;;5009722;28;20107;-61
2023/11/13 12:10:25;;;;;;;13.93;7.72;;;8.20;99.90;;;;;;5009578;28;20507;-61
2023/11/13 12:12:51;;;;;;;12.05;7.45;;;8.20;99.90;;;;;;5009891;28;20101;-61
2023/11/13 12:15:18;;;;;;;9.38;6.45;;;8.20;99.90;;;;;;5009275;28;20032;-62
2023/11/13 12:17:44;;;;;;;13.27;8.35;;;8.30;99.90;;;;;;5009569;28;20049;-61
2023/11/13 12:20:11;;;;;;;12.43;8.73;;;8.20;99.90;;;;;;5009634;28;20022;-61
2023/11/13 12:22:38;;;;;;;12.95;8.32;;;8.20;99.90;;;;;;5009727;28;20084;-61
2023/11/13 12:25:05;;;;;;;11.80;7.82;;;8.20;99.90;;;;;;5009357;28;20060;-62
2023/11/13 12:27:31;;;;;;;11.65;7.80;;;8.20;99.90;;;;;;5009374;28;20340;-62
2023/11/13 12:30:01;;;;;;;10.05;7.05;;;8.20;99.90;;;;;;5008809;28;20018;-62
2023/11/13 12:32:29;;;;;;;11.45;8.38;;;8.20;99.90;;;;;;5009340;28;20026;-62
2023/11/13 12:34:58;;;;;;;12.55;8.95;;;8.20;99.90;;;;;;5009374;28;20037;-61
2023/11/13 12:37:26;;;;;;;12.50;8.40;;;8.10;99.90;;;;;;5007998;28;20041;-61
2023/11/13 12:39:59;;;;;;;14.90;8.50;;;8.00;99.90;;;;;;5009878;28;20018;-61
2023/11/13 12:42:28;;;;;;;13.60;9.18;;;7.90;99.90;;;;;;5009346;28;20038;-61
2023/11/13 12:44:55;;;;;;;15.90;9.60;;;7.90;99.90;;;;;;5009193;28;20681;-62
2023/11/13 12:47:21;;;;;;;16.08;9.35;;;7.90;99.90;;;;;;5007701;28;20025;-61
2023/11/13 12:49:48;;;;;;;15.70;9.32;;;7.80;99.90;;;;;;5009382;28;20479;-62
2023/11/13 12:52:18;;;;;;;17.25;10.35;;;7.90;99.90;;;;;;5009581;28;20058;-62
2023/11/13 12:54:55;;;;;;;15.00;8.82;;;7.80;99.90;;;;;;5009561;28;20118;-62
2023/11/13 12:57:26;;;;;;;15.38;9.35;;;7.80;99.90;;;;;;5009214;28;20029;-62